createdAt,value
2019-02-04T00:01:37.777Z,12.27
2019-02-04T00:04:19.668Z,19.23
2019-02-04T00:06:55.331Z,13.78
2019-02-04T00:09:46.400Z,14.37
2019-02-04T00:12:29.990Z,20.17
2019-02-04T00:15:16.805Z,14.83
2019-02-04T00:17:55.615Z,10.93
2019-02-04T00:20:29.183Z,11.97
2019-02-04T00:23:08.781Z,10.97
2019-02-04T00:25:50.678Z,14.70
2019-02-04T00:28:22.840Z,20.53
2019-02-04T00:30:57.784Z,16.30
2019-02-04T00:33:28.453Z,17.17
2019-02-04T00:35:59.552Z,16.07
2019-02-04T00:38:34.427Z,16.30
2019-02-04T00:41:08.500Z,19.97
2019-02-04T00:43:39.263Z,16.87
2019-02-04T00:46:12.519Z,18.90
2019-02-04T00:48:42.445Z,16.40
2019-02-04T00:51:17.627Z,15.40
2019-02-04T00:53:48.262Z,16.50
2019-02-04T00:56:19.923Z,14.20
2019-02-04T00:58:56.556Z,16.00
2019-02-04T01:01:31.627Z,19.65
2019-02-04T01:04:02.445Z,16.80
2019-02-04T01:06:32.276Z,18.70
2019-02-04T01:09:11.294Z,14.50
2019-02-04T01:11:48.790Z,17.23
2019-02-04T01:14:28.515Z,17.53
2019-02-04T01:17:03.556Z,16.77
2019-02-04T01:19:33.338Z,14.13
2019-02-04T01:22:06.847Z,17.20
2019-02-04T01:24:41.016Z,13.70
2019-02-04T01:27:14.148Z,13.70
2019-02-04T01:29:54.418Z,16.10
2019-02-04T01:32:37.683Z,17.33
2019-02-04T01:35:22.124Z,20.60
2019-02-04T01:37:55.304Z,17.83
2019-02-04T01:40:32.835Z,15.73
2019-02-04T01:43:06.782Z,20.00
2019-02-04T01:45:40.825Z,13.33
2019-02-04T01:48:12.579Z,16.70
2019-02-04T01:50:42.845Z,14.20
2019-02-04T01:53:30.181Z,14.17
2019-02-04T01:56:00.922Z,13.73
2019-02-04T01:58:35.564Z,12.90
2019-02-04T02:01:07.266Z,12.80
2019-02-04T02:06:34.343Z,13.50
2019-02-04T02:09:11.439Z,13.47
2019-02-04T02:11:41.683Z,13.97
2019-02-04T02:14:13.219Z,13.90
2019-02-04T02:16:43.171Z,13.47
2019-02-04T02:19:16.855Z,15.47
2019-02-04T02:21:49.656Z,12.90
2019-02-04T02:24:28.616Z,14.93
2019-02-04T02:29:51.548Z,13.50
2019-02-04T02:32:26.721Z,14.13
2019-02-04T02:35:13.234Z,16.33
2019-02-04T02:37:46.762Z,15.97
2019-02-04T02:40:22.167Z,14.43
2019-02-04T02:42:55.890Z,15.67
2019-02-04T02:45:26.038Z,13.00
2019-02-04T02:47:56.614Z,12.03
2019-02-04T02:50:26.429Z,16.80
2019-02-04T02:52:56.871Z,12.10
2019-02-04T02:55:32.225Z,14.80
2019-02-04T02:58:12.914Z,14.40
2019-02-04T03:00:43.134Z,17.50
2019-02-04T03:03:13.967Z,14.17
2019-02-04T03:05:53.346Z,13.63
2019-02-04T03:08:23.644Z,15.40
2019-02-04T03:14:00.653Z,15.43
2019-02-04T03:16:41.380Z,13.93
2019-02-04T03:19:11.954Z,14.40
2019-02-04T03:21:42.312Z,12.23
2019-02-04T03:24:13.295Z,15.37
2019-02-04T03:26:47.082Z,14.13
2019-02-04T03:29:23.217Z,14.60
2019-02-04T03:31:54.362Z,15.80
2019-02-04T03:34:30.881Z,14.70
2019-02-04T03:37:01.344Z,15.47
2019-02-04T03:39:31.423Z,15.20
2019-02-04T03:42:05.191Z,10.70
2019-02-04T03:44:35.414Z,12.33
2019-02-04T03:47:05.593Z,17.83
2019-02-04T03:49:35.545Z,15.00
2019-02-04T03:52:09.205Z,15.63
2019-02-04T03:54:43.397Z,16.70
2019-02-04T03:57:16.388Z,14.00
2019-02-04T03:59:52.873Z,14.93
2019-02-04T04:02:27.966Z,15.13
2019-02-04T04:05:06.609Z,17.73
2019-02-04T04:07:36.651Z,19.17
2019-02-04T04:10:07.827Z,11.00
2019-02-04T04:12:39.343Z,13.97
2019-02-04T04:15:21.136Z,14.43
2019-02-04T04:17:50.496Z,13.60
2019-02-04T04:20:29.686Z,16.57
2019-02-04T04:23:00.493Z,11.93
2019-02-04T04:25:33.322Z,13.07
2019-02-04T04:28:04.222Z,13.27
2019-02-04T04:30:44.471Z,12.43
2019-02-04T04:33:23.212Z,13.30
2019-02-04T04:36:10.949Z,13.80
2019-02-04T04:38:41.823Z,16.00
2019-02-04T04:41:30.269Z,14.90
2019-02-04T04:44:00.547Z,12.80
2019-02-04T04:46:30.839Z,14.27
2019-02-04T04:49:01.397Z,14.40
2019-02-04T04:51:31.427Z,18.77
2019-02-04T04:54:01.668Z,20.60
2019-02-04T04:56:40.897Z,14.37
2019-02-04T04:59:11.812Z,16.10
2019-02-04T05:01:54.382Z,19.13
2019-02-04T05:04:28.075Z,18.10
2019-02-04T05:07:14.775Z,16.60
2019-02-04T05:09:47.007Z,14.37
2019-02-04T05:12:17.445Z,15.53
2019-02-04T05:14:54.081Z,23.07
2019-02-04T05:17:31.384Z,19.27
2019-02-04T05:20:05.569Z,17.60
2019-02-04T05:22:35.877Z,23.63
2019-02-04T05:25:07.692Z,20.10
2019-02-04T05:27:38.085Z,17.33
2019-02-04T05:30:10.455Z,19.33
2019-02-04T05:32:41.000Z,15.50
2019-02-04T05:35:17.060Z,16.07
2019-02-04T05:37:51.201Z,18.43
2019-02-04T05:40:22.653Z,14.57
2019-02-04T05:42:54.713Z,19.43
2019-02-04T05:45:31.922Z,16.17
2019-02-04T05:48:02.480Z,13.77
2019-02-04T05:50:36.404Z,19.80
2019-02-04T05:53:06.576Z,16.10
2019-02-04T05:55:46.456Z,15.90
2019-02-04T05:58:18.525Z,15.23
2019-02-04T06:00:50.466Z,16.80
2019-02-04T06:03:20.874Z,15.15
2019-02-04T06:05:50.900Z,13.83
2019-02-04T06:08:21.657Z,11.53
2019-02-04T06:10:55.198Z,10.93
2019-02-04T06:13:45.279Z,13.87
2019-02-04T06:16:20.128Z,14.97
2019-02-04T06:19:00.494Z,17.30
2019-02-04T06:21:23.419Z,15.33
2019-02-04T06:23:54.817Z,16.40
2019-02-04T06:26:26.539Z,14.70
2019-02-04T06:29:01.223Z,15.63
2019-02-04T06:31:42.871Z,20.63
2019-02-04T06:34:20.907Z,21.93
2019-02-04T06:36:50.911Z,21.03
2019-02-04T06:39:20.208Z,17.40
2019-02-04T06:41:50.593Z,20.60
2019-02-04T06:44:20.354Z,20.80
2019-02-04T06:46:50.142Z,18.53
2019-02-04T06:49:19.622Z,16.80
2019-02-04T06:51:50.259Z,19.07
2019-02-04T06:54:23.264Z,21.30
2019-02-04T06:56:53.243Z,17.93
2019-02-04T06:59:22.871Z,20.03
2019-02-04T07:01:52.928Z,19.00
2019-02-04T07:04:27.207Z,22.03
2019-02-04T07:06:56.936Z,20.93
2019-02-04T07:09:26.721Z,20.37
2019-02-04T07:11:56.604Z,19.33
2019-02-04T07:14:26.859Z,18.13
2019-02-04T07:16:56.728Z,18.70
2019-02-04T07:19:26.128Z,25.40
2019-02-04T07:21:56.367Z,18.83
2019-02-04T07:24:26.091Z,17.97
2019-02-04T07:26:55.820Z,14.33
2019-02-04T07:29:25.606Z,18.70
2019-02-04T07:31:55.142Z,15.90
2019-02-04T07:34:24.436Z,19.03
2019-02-04T07:36:54.155Z,17.30
2019-02-04T07:39:23.914Z,18.47
2019-02-04T07:41:54.013Z,17.27
2019-02-04T07:44:24.466Z,18.03
2019-02-04T07:46:55.084Z,20.73
2019-02-04T07:49:34.757Z,15.13
2019-02-04T07:51:56.576Z,18.60
2019-02-04T07:54:26.120Z,15.93
2019-02-04T07:56:55.733Z,21.00
2019-02-04T07:59:25.342Z,26.80
2019-02-04T08:01:55.310Z,18.90
2019-02-04T08:04:25.386Z,18.13
2019-02-04T08:06:55.892Z,18.43
2019-02-04T08:09:26.116Z,19.53
2019-02-04T08:11:56.567Z,15.80
2019-02-04T08:14:26.195Z,18.13
2019-02-04T08:17:21.866Z,15.07
2019-02-04T08:20:24.428Z,17.20
2019-02-04T08:23:07.713Z,17.90
2019-02-04T08:26:04.882Z,18.70
2019-02-04T08:28:37.922Z,22.17
2019-02-04T08:31:37.113Z,30.90
2019-02-04T08:34:23.142Z,27.20
2019-02-04T08:36:50.250Z,28.80
2019-02-04T08:39:48.172Z,25.50
2019-02-04T08:42:49.206Z,20.03
2019-02-04T08:53:22.514Z,33.40
2019-02-04T09:03:35.697Z,19.63
2019-02-04T09:11:10.236Z,18.07
2019-02-04T09:18:05.922Z,33.40
2019-02-04T09:21:13.428Z,28.63
2019-02-04T09:36:59.915Z,20.40
2019-02-04T09:40:22.713Z,18.90
2019-02-04T09:43:50.367Z,22.00
2019-02-04T09:54:53.948Z,20.73
2019-02-04T10:01:30.630Z,20.97
2019-02-04T10:04:47.899Z,17.10
2019-02-04T10:07:41.697Z,21.53
2019-02-04T10:17:50.471Z,23.20
2019-02-04T10:20:34.628Z,27.70
2019-02-04T10:23:47.319Z,27.27
2019-02-04T10:27:20.146Z,30.47
2019-02-04T10:38:31.809Z,19.57
2019-02-04T10:41:11.271Z,17.93
2019-02-04T10:43:47.286Z,24.30
2019-02-04T10:46:25.145Z,22.57
2019-02-04T11:21:01.267Z,12.23
2019-02-04T11:24:21.825Z,13.30
2019-02-04T11:38:58.167Z,12.63
2019-02-04T11:41:35.713Z,12.23
2019-02-04T11:44:06.208Z,12.67
2019-02-04T11:46:36.584Z,12.50
2019-02-04T11:49:07.180Z,12.60
2019-02-04T11:51:37.399Z,12.10
2019-02-04T11:54:07.421Z,12.90
2019-02-04T11:56:39.110Z,15.67
2019-02-04T11:59:09.198Z,16.40
2019-02-04T12:01:39.441Z,15.50
2019-02-04T12:04:09.762Z,15.67
2019-02-04T12:06:39.654Z,14.73
2019-02-04T12:09:10.600Z,14.93
2019-02-04T12:11:40.991Z,14.50
2019-02-04T12:14:11.058Z,17.20
2019-02-04T12:16:41.050Z,13.17
2019-02-04T12:19:11.014Z,13.47
2019-02-04T12:21:41.056Z,14.20
2019-02-04T12:24:11.191Z,16.73
2019-02-04T12:26:40.917Z,15.37
2019-02-04T12:29:10.737Z,14.47
2019-02-04T12:31:40.191Z,13.53
2019-02-04T12:34:09.591Z,16.03
2019-02-04T12:36:39.605Z,14.33
2019-02-04T12:39:18.037Z,14.97
2019-02-04T12:41:50.654Z,16.63
2019-02-04T12:44:20.541Z,14.10
2019-02-04T12:46:51.834Z,13.00
2019-02-04T12:49:22.337Z,12.50
2019-02-04T12:51:52.865Z,14.63
2019-02-04T12:54:22.928Z,14.63
2019-02-04T12:56:54.253Z,14.87
2019-02-04T12:59:24.375Z,12.47
2019-02-04T13:01:54.726Z,13.30
2019-02-04T13:04:25.238Z,13.33
2019-02-04T13:06:57.276Z,14.70
2019-02-04T13:09:27.107Z,17.50
2019-02-04T13:11:57.444Z,15.33
2019-02-04T13:14:27.389Z,12.83
2019-02-04T13:16:57.226Z,13.50
2019-02-04T13:19:27.254Z,14.63
2019-02-04T13:22:08.327Z,15.23
2019-02-04T13:24:38.223Z,12.50
2019-02-04T13:27:08.370Z,15.33
2019-02-04T13:29:38.431Z,14.23
2019-02-04T13:32:13.335Z,12.57
2019-02-04T13:34:42.876Z,12.50
2019-02-04T13:37:15.687Z,12.77
2019-02-04T14:11:10.191Z,14.37
2019-02-04T14:13:49.826Z,15.80
2019-02-04T14:16:45.931Z,16.33
2019-02-04T14:22:31.167Z,9.40
2019-02-04T14:25:01.857Z,11.03
2019-02-04T14:28:48.996Z,13.53
2019-02-04T14:31:26.044Z,10.30
2019-02-04T14:33:59.805Z,12.63
2019-02-04T14:36:39.571Z,11.60
2019-02-04T14:39:16.998Z,10.17
2019-02-04T14:41:50.836Z,12.30
2019-02-04T14:44:52.732Z,12.50
2019-02-04T14:48:15.225Z,15.10
2019-02-04T14:51:23.683Z,11.33
2019-02-04T14:54:43.606Z,11.10
2019-02-04T14:57:44.233Z,10.60
2019-02-04T15:00:55.265Z,10.67
2019-02-04T15:03:58.962Z,11.80
2019-02-04T15:07:15.704Z,13.30
2019-02-04T15:10:34.574Z,12.13
2019-02-04T15:13:39.772Z,13.47
2019-02-04T15:16:46.078Z,14.50
2019-02-04T15:20:14.378Z,10.73
2019-02-04T15:23:43.334Z,15.00
2019-02-04T15:27:04.325Z,11.03
2019-02-04T15:30:07.540Z,11.50
2019-02-04T15:33:33.152Z,14.97
2019-02-04T15:36:36.437Z,13.83
2019-02-04T15:39:45.152Z,12.90
2019-02-04T15:42:53.778Z,13.57
2019-02-04T15:46:03.925Z,13.70
2019-02-04T15:49:23.673Z,13.17
2019-02-04T15:51:58.314Z,14.43
2019-02-04T15:54:31.703Z,15.63
2019-02-04T15:57:04.599Z,13.03
2019-02-04T15:59:45.126Z,10.90
2019-02-04T16:02:16.519Z,12.10
2019-02-04T16:05:11.895Z,17.93
2019-02-04T16:07:43.356Z,15.03
2019-02-04T16:10:25.293Z,13.20
2019-02-04T16:12:57.171Z,13.20
2019-02-04T16:15:42.260Z,13.10
2019-02-04T16:18:11.390Z,13.17
2019-02-04T16:20:41.850Z,16.20
2019-02-04T16:23:11.696Z,14.10
2019-02-04T16:25:41.660Z,12.83
2019-02-04T16:28:11.821Z,14.37
2019-02-04T16:30:41.890Z,19.70
2019-02-04T16:33:12.913Z,27.70
2019-02-04T16:35:45.593Z,29.07
2019-02-04T16:38:14.847Z,28.97
2019-02-04T16:40:44.392Z,21.93
2019-02-04T16:43:14.246Z,17.20
2019-02-04T16:45:43.643Z,29.93
2019-02-04T16:48:13.283Z,25.53
2019-02-04T16:50:42.760Z,21.17
2019-02-04T16:53:12.355Z,21.10
2019-02-04T16:55:41.928Z,20.53
2019-02-04T16:58:11.762Z,22.77
2019-02-04T17:00:41.160Z,24.07
2019-02-04T17:03:11.547Z,22.10
2019-02-04T17:05:41.859Z,24.60
2019-02-04T17:08:11.413Z,23.13
2019-02-04T17:10:40.899Z,23.77
2019-02-04T17:13:10.714Z,23.33
2019-02-04T17:15:40.657Z,20.80
2019-02-04T17:18:11.888Z,23.20
2019-02-04T17:20:41.255Z,22.40
2019-02-04T17:23:21.619Z,27.00
2019-02-04T17:25:42.229Z,21.20
2019-02-04T17:28:11.574Z,22.97
2019-02-04T17:30:41.356Z,23.00
2019-02-04T17:33:11.325Z,27.10
2019-02-04T17:35:40.627Z,30.57
2019-02-04T17:38:09.962Z,31.20
2019-02-04T17:40:39.951Z,27.43
2019-02-04T17:43:10.019Z,21.63
2019-02-04T17:45:39.423Z,25.40
2019-02-04T17:48:09.432Z,24.83
2019-02-04T18:09:07.100Z,20.03
2019-02-04T18:11:37.595Z,15.37
2019-02-04T18:14:08.353Z,17.37
2019-02-04T18:16:38.808Z,22.67
2019-02-04T18:19:10.994Z,30.83
2019-02-04T18:21:42.488Z,26.20
2019-02-04T18:24:12.785Z,34.43
2019-02-04T18:26:45.277Z,36.63
2019-02-04T18:29:15.722Z,35.10
2019-02-04T18:31:46.544Z,27.63
2019-02-04T18:34:16.361Z,28.37
2019-02-04T18:36:48.251Z,30.10
2019-02-04T18:39:21.960Z,25.33
2019-02-04T18:41:55.505Z,26.20
2019-02-04T18:44:24.263Z,23.77
2019-02-04T18:46:57.261Z,29.87
2019-02-04T18:49:27.551Z,33.92
2019-02-04T18:51:59.485Z,21.10
2019-02-04T18:54:33.266Z,22.63
2019-02-04T18:57:03.556Z,23.47
2019-02-04T18:59:34.150Z,23.20
2019-02-04T19:02:04.523Z,23.83
2019-02-04T19:04:34.652Z,21.50
2019-02-04T19:07:06.228Z,20.17
2019-02-04T19:09:38.696Z,26.03
2019-02-04T19:12:12.957Z,27.03
2019-02-04T19:14:44.058Z,27.27
2019-02-04T19:17:18.054Z,21.87
2019-02-04T19:19:52.161Z,20.17
2019-02-04T19:22:28.680Z,20.70
2019-02-04T19:24:59.903Z,22.40
2019-02-04T19:27:29.857Z,24.17
2019-02-04T19:30:00.836Z,30.70
2019-02-04T19:32:31.934Z,29.60
2019-02-04T19:35:11.787Z,28.13
2019-02-04T19:37:48.065Z,26.67
2019-02-04T19:40:24.058Z,22.27
2019-02-04T19:42:56.419Z,22.07
2019-02-04T19:45:27.291Z,25.27
2019-02-04T19:48:06.803Z,24.53
2019-02-04T19:50:37.977Z,24.60
2019-02-04T19:53:08.448Z,22.37
2019-02-04T19:55:54.390Z,25.70
2019-02-04T19:58:25.543Z,24.50
2019-02-04T20:01:00.465Z,21.50
2019-02-04T20:03:36.910Z,21.37
2019-02-04T20:06:14.301Z,21.80
2019-02-04T20:08:46.858Z,24.03
2019-02-04T20:11:21.218Z,20.40
2019-02-04T20:13:52.121Z,17.77
2019-02-04T20:16:25.752Z,19.63
2019-02-04T20:19:00.281Z,24.47
2019-02-04T20:21:31.015Z,21.97
2019-02-04T20:24:05.736Z,22.70
2019-02-04T20:26:35.858Z,22.33
2019-02-04T20:37:20.946Z,22.57
2019-02-04T20:51:12.212Z,23.33
2019-02-04T20:53:43.443Z,26.27
2019-02-04T20:56:14.470Z,25.80
2019-02-04T20:58:47.432Z,25.53
2019-02-04T21:01:20.541Z,25.80
2019-02-04T21:03:51.628Z,26.63
2019-02-04T21:07:11.548Z,23.47
2019-02-04T21:09:43.924Z,28.10
2019-02-04T21:12:18.545Z,26.83
2019-02-04T21:14:52.695Z,24.80
2019-02-04T21:17:23.334Z,25.93
2019-02-04T21:19:54.296Z,23.93
2019-02-04T21:22:25.845Z,23.07
2019-02-04T21:24:56.796Z,24.50
2019-02-04T21:27:27.103Z,22.90
2019-02-04T21:29:57.200Z,29.00
2019-02-04T21:32:27.431Z,29.50
2019-02-04T21:34:57.509Z,20.47
2019-02-04T21:37:28.207Z,26.90
2019-02-04T21:40:01.981Z,22.00
2019-02-04T21:42:44.412Z,22.43
2019-02-04T21:45:20.541Z,25.60
2019-02-04T21:47:53.240Z,22.30
2019-02-04T21:50:28.102Z,26.60
2019-02-04T21:52:58.825Z,24.50
2019-02-04T21:55:32.148Z,24.77
2019-02-04T21:58:12.982Z,24.37
2019-02-04T22:00:48.183Z,24.80
2019-02-04T22:03:18.807Z,21.30
2019-02-04T22:05:55.797Z,27.33
2019-02-04T22:08:31.247Z,29.77
2019-02-04T22:11:03.162Z,26.10
2019-02-04T22:13:33.959Z,27.00
2019-02-04T22:16:04.007Z,25.87
2019-02-04T22:18:33.947Z,24.27
2019-02-04T22:21:04.380Z,23.50
2019-02-04T22:23:36.556Z,29.70
2019-02-04T22:26:09.761Z,24.43
2019-02-04T22:28:43.022Z,26.53
2019-02-04T22:31:26.081Z,24.97
2019-02-04T22:34:08.520Z,26.80
2019-02-04T22:36:39.353Z,24.97
2019-02-04T22:39:12.177Z,28.07
2019-02-04T22:41:42.402Z,25.30
2019-02-04T22:44:18.140Z,26.30
2019-02-04T22:46:48.047Z,26.97
2019-02-04T22:49:17.964Z,24.17
2019-02-04T22:51:55.407Z,26.60
2019-02-04T22:54:25.529Z,25.30
2019-02-04T22:56:55.693Z,27.00
2019-02-04T22:59:26.291Z,28.50
2019-02-04T23:02:02.019Z,28.70
2019-02-04T23:04:32.823Z,26.20
2019-02-04T23:07:07.040Z,29.97
2019-02-04T23:09:39.615Z,27.40
2019-02-04T23:12:10.453Z,31.23
2019-02-04T23:14:40.483Z,29.53
2019-02-04T23:17:10.654Z,32.37
2019-02-04T23:19:48.280Z,26.80
2019-02-04T23:22:18.292Z,24.60
2019-02-04T23:24:48.736Z,28.50
2019-02-04T23:27:19.051Z,39.47
2019-02-04T23:29:49.287Z,30.23
2019-02-04T23:32:19.310Z,24.63
2019-02-04T23:34:52.415Z,29.27
2019-02-04T23:37:22.660Z,29.87
2019-02-04T23:39:52.793Z,26.10
2019-02-04T23:42:22.855Z,26.73
2019-02-04T23:44:54.201Z,29.20
2019-02-04T23:47:25.034Z,29.23
2019-02-04T23:49:55.503Z,27.27
2019-02-04T23:52:26.547Z,27.77
2019-02-04T23:55:00.521Z,26.90
2019-02-04T23:57:30.961Z,24.73
